Time,TemperatureF,DewpointF,PressureIn,WindDirection,WindDirectionDegrees,WindSpeedMPH,WindSpeedGustMPH,Humidity,HourlyPrecipIn,Conditions,Clouds,dailyrainin,SolarRadiationWatts/m^2,SoftwareType,DateUTC
2013-06-24 00:03:00,54.0,33.0,-100.00,NW,310,2.0,3.0,45,0.00,,,0.00,18.000000,,2013-06-24 08:03:00,
2013-06-24 00:13:00,54.0,33.0,-100.00,NW,310,2.0,3.0,45,0.00,,,0.00,18.000000,,2013-06-24 08:13:00,
2013-06-24 00:23:00,54.0,33.0,-100.00,NW,310,2.0,3.0,45,0.00,,,0.00,18.000000,,2013-06-24 08:23:00,
2013-06-24 00:33:00,53.0,32.0,-100.00,NNW,335,1.0,2.0,45,0.00,,,0.00,2.000000,,2013-06-24 08:33:00,
2013-06-24 00:55:00,53.0,32.0,-100.00,NNW,335,1.0,2.0,45,0.00,,,0.00,2.000000,,2013-06-24 08:55:00,
2013-06-24 01:14:00,53.0,32.0,-100.00,NNW,335,1.0,2.0,45,0.00,,,0.00,2.000000,,2013-06-24 09:14:00,
2013-06-24 01:24:00,53.0,32.0,-100.00,NNW,335,1.0,2.0,45,0.00,,,0.00,2.000000,,2013-06-24 09:24:00,
2013-06-24 02:02:00,51.0,33.0,-100.00,West,264,4.0,10.0,50,0.00,,,0.00,0.000000,,2013-06-24 10:02:00,
2013-06-24 02:13:00,51.0,33.0,-100.00,West,264,4.0,10.0,50,0.00,,,0.00,0.000000,,2013-06-24 10:13:00,
2013-06-24 02:22:00,51.0,33.0,-100.00,West,264,4.0,10.0,50,0.00,,,0.00,0.000000,,2013-06-24 10:22:00,
2013-06-24 02:33:00,50.0,32.0,-100.00,NW,317,4.0,7.0,50,0.00,,,0.00,0.000000,,2013-06-24 10:33:00,
2013-06-24 03:02:00,50.0,32.0,-100.00,NW,317,4.0,7.0,50,0.00,,,0.00,0.000000,,2013-06-24 11:02:00,
2013-06-24 03:13:00,50.0,32.0,-100.00,NW,317,4.0,7.0,50,0.00,,,0.00,0.000000,,2013-06-24 11:13:00,
2013-06-24 03:33:00,50.0,33.0,-100.00,North,351,3.0,6.0,51,0.00,,,0.00,0.000000,,2013-06-24 11:33:00,
2013-06-24 04:03:00,50.0,33.0,-100.00,North,351,3.0,6.0,51,0.00,,,0.00,0.000000,,2013-06-24 12:03:00,
2013-06-24 04:14:00,50.0,33.0,-100.00,North,351,3.0,6.0,51,0.00,,,0.00,0.000000,,2013-06-24 12:14:00,
2013-06-24 04:23:00,50.0,33.0,-100.00,North,351,3.0,6.0,51,0.00,,,0.00,0.000000,,2013-06-24 12:23:00,
2013-06-24 04:33:00,50.0,33.0,-100.00,NNW,339,5.0,7.0,51,0.00,,,0.00,1.000000,,2013-06-24 12:33:00,
2013-06-24 05:04:00,50.0,33.0,-100.00,NNW,339,5.0,7.0,51,0.00,,,0.00,1.000000,,2013-06-24 13:04:00,
2013-06-24 05:13:00,50.0,33.0,-100.00,NNW,339,5.0,7.0,51,0.00,,,0.00,1.000000,,2013-06-24 13:13:00,
2013-06-24 05:22:00,50.0,33.0,-100.00,NNW,339,5.0,7.0,51,0.00,,,0.00,1.000000,,2013-06-24 13:22:00,
2013-06-24 05:33:00,48.0,33.0,-100.00,NW,306,4.0,7.0,56,0.00,,,0.00,6.000000,,2013-06-24 13:33:00,
2013-06-24 06:02:00,48.0,33.0,-100.00,NW,306,4.0,7.0,56,0.00,,,0.00,6.000000,,2013-06-24 14:02:00,
2013-06-24 06:13:00,48.0,33.0,-100.00,NW,306,4.0,7.0,56,0.00,,,0.00,6.000000,,2013-06-24 14:13:00,
2013-06-24 06:22:00,48.0,33.0,-100.00,NW,306,4.0,7.0,56,0.00,,,0.00,6.000000,,2013-06-24 14:22:00,
2013-06-24 06:33:00,48.0,34.0,-100.00,NW,317,4.0,8.0,57,0.00,,,0.00,41.000000,,2013-06-24 14:33:00,
2013-06-24 07:04:00,48.0,34.0,-100.00,NW,317,4.0,8.0,57,0.00,,,0.00,41.000000,,2013-06-24 15:04:00,
2013-06-24 07:12:00,48.0,34.0,-100.00,NW,317,4.0,8.0,57,0.00,,,0.00,41.000000,,2013-06-24 15:12:00,
2013-06-24 07:24:00,48.0,34.0,-100.00,NW,317,4.0,8.0,57,0.00,,,0.00,41.000000,,2013-06-24 15:24:00,
2013-06-24 08:03:00,49.0,36.0,-100.00,NW,313,3.0,8.0,61,0.00,,,0.00,168.000000,,2013-06-24 16:03:00,
2013-06-24 08:12:00,49.0,36.0,-100.00,NW,313,3.0,8.0,61,0.00,,,0.00,168.000000,,2013-06-24 16:12:00,
2013-06-24 08:23:00,49.0,36.0,-100.00,NW,313,3.0,8.0,61,0.00,,,0.00,168.000000,,2013-06-24 16:23:00,
2013-06-24 08:33:00,50.0,35.0,-100.00,NE,44,3.0,5.0,56,0.00,,,0.00,221.000000,,2013-06-24 16:33:00,
2013-06-24 09:04:00,50.0,35.0,-100.00,NE,44,3.0,5.0,56,0.00,,,0.00,221.000000,,2013-06-24 17:04:00,
2013-06-24 09:13:00,50.0,35.0,-100.00,NE,44,3.0,5.0,56,0.00,,,0.00,221.000000,,2013-06-24 17:13:00,
2013-06-24 09:23:00,50.0,35.0,-100.00,NE,44,3.0,5.0,56,0.00,,,0.00,221.000000,,2013-06-24 17:23:00,
2013-06-24 09:33:00,51.0,35.0,-100.00,SSW,202,1.0,4.0,54,0.00,,,0.00,322.000000,,2013-06-24 17:33:00,
2013-06-24 10:02:00,51.0,35.0,-100.00,SSW,202,1.0,4.0,54,0.00,,,0.00,322.000000,,2013-06-24 18:02:00,
2013-06-24 10:14:00,51.0,35.0,-100.00,SSW,202,1.0,4.0,54,0.00,,,0.00,322.000000,,2013-06-24 18:14:00,
2013-06-24 10:23:00,51.0,35.0,-100.00,SSW,202,1.0,4.0,54,0.00,,,0.00,322.000000,,2013-06-24 18:23:00,
2013-06-24 10:33:00,53.0,37.0,-100.00,NNE,24,3.0,8.0,54,0.00,,,0.00,438.000000,,2013-06-24 18:33:00,
2013-06-24 11:05:00,53.0,37.0,-100.00,NNE,24,3.0,8.0,54,0.00,,,0.00,438.000000,,2013-06-24 19:05:00,
2013-06-24 11:12:00,53.0,37.0,-100.00,NNE,24,3.0,8.0,54,0.00,,,0.00,438.000000,,2013-06-24 19:12:00,
2013-06-24 11:24:00,53.0,37.0,-100.00,NNE,24,3.0,8.0,54,0.00,,,0.00,438.000000,,2013-06-24 19:24:00,
2013-06-24 11:33:00,55.0,35.0,-100.00,South,175,3.0,9.0,46,0.00,,,0.00,664.000000,,2013-06-24 19:33:00,
2013-06-24 12:03:00,55.0,35.0,-100.00,South,175,3.0,9.0,46,0.00,,,0.00,664.000000,,2013-06-24 20:03:00,
2013-06-24 12:11:00,55.0,35.0,-100.00,South,175,3.0,9.0,46,0.00,,,0.00,664.000000,,2013-06-24 20:11:00,
2013-06-24 12:22:00,55.0,35.0,-100.00,South,175,3.0,9.0,46,0.00,,,0.00,664.000000,,2013-06-24 20:22:00,
2013-06-24 12:33:00,58.0,31.0,-100.00,SW,235,4.0,8.0,35,0.00,,,0.00,789.000000,,2013-06-24 20:33:00,
2013-06-24 13:03:00,58.0,31.0,-100.00,SW,235,4.0,8.0,35,0.00,,,0.00,789.000000,,2013-06-24 21:03:00,
2013-06-24 13:12:00,58.0,31.0,-100.00,SW,235,4.0,8.0,35,0.00,,,0.00,789.000000,,2013-06-24 21:12:00,
2013-06-24 13:23:00,58.0,31.0,-100.00,SW,235,4.0,8.0,35,0.00,,,0.00,789.000000,,2013-06-24 21:23:00,
2013-06-24 14:04:00,61.0,33.0,-100.00,WSW,243,5.0,9.0,35,0.00,,,0.00,854.000000,,2013-06-24 22:04:00,
2013-06-24 14:13:00,61.0,33.0,-100.00,WSW,243,5.0,9.0,35,0.00,,,0.00,854.000000,,2013-06-24 22:13:00,
2013-06-24 14:23:00,61.0,33.0,-100.00,WSW,243,5.0,9.0,35,0.00,,,0.00,854.000000,,2013-06-24 22:23:00,
2013-06-24 14:33:00,62.0,34.0,-100.00,West,259,6.0,9.0,35,0.00,,,0.00,870.000000,,2013-06-24 22:33:00,
2013-06-24 15:04:00,62.0,34.0,-100.00,West,259,6.0,9.0,35,0.00,,,0.00,870.000000,,2013-06-24 23:04:00,
2013-06-24 15:11:00,62.0,34.0,-100.00,West,259,6.0,9.0,35,0.00,,,0.00,870.000000,,2013-06-24 23:11:00,
2013-06-24 15:23:00,62.0,34.0,-100.00,West,259,6.0,9.0,35,0.00,,,0.00,870.000000,,2013-06-24 23:23:00,
2013-06-24 15:33:00,62.0,31.0,-100.00,West,260,10.0,13.0,31,0.00,,,0.00,845.000000,,2013-06-24 23:33:00,
2013-06-24 15:54:00,62.0,31.0,-100.00,West,260,10.0,13.0,31,0.00,,,0.00,845.000000,,2013-06-24 23:54:00,
2013-06-24 16:02:00,62.0,31.0,-100.00,West,260,10.0,13.0,31,0.00,,,0.00,845.000000,,2013-06-25 00:02:00,
2013-06-24 16:12:00,62.0,31.0,-100.00,West,260,10.0,13.0,31,0.00,,,0.00,845.000000,,2013-06-25 00:12:00,
2013-06-24 16:22:00,62.0,31.0,-100.00,West,260,10.0,13.0,31,0.00,,,0.00,845.000000,,2013-06-25 00:22:00,
2013-06-24 16:33:00,64.0,33.0,-100.00,West,260,7.0,11.0,31,0.00,,,0.00,785.000000,,2013-06-25 00:33:00,
2013-06-24 17:03:00,64.0,33.0,-100.00,West,260,7.0,11.0,31,0.00,,,0.00,785.000000,,2013-06-25 01:03:00,
2013-06-24 17:13:00,64.0,33.0,-100.00,West,260,7.0,11.0,31,0.00,,,0.00,785.000000,,2013-06-25 01:13:00,
2013-06-24 17:22:00,64.0,33.0,-100.00,West,260,7.0,11.0,31,0.00,,,0.00,785.000000,,2013-06-25 01:22:00,
2013-06-24 18:23:00,65.0,26.0,-100.00,West,260,6.0,9.0,23,0.00,,,0.00,693.000000,,2013-06-25 02:23:00,
2013-06-24 19:04:00,67.0,30.0,-100.00,West,269,3.0,7.0,25,0.00,,,0.00,576.000000,,2013-06-25 03:04:00,
2013-06-24 19:12:00,67.0,30.0,-100.00,West,269,3.0,7.0,25,0.00,,,0.00,576.000000,,2013-06-25 03:12:00,
2013-06-24 19:24:00,67.0,30.0,-100.00,West,269,3.0,7.0,25,0.00,,,0.00,576.000000,,2013-06-25 03:24:00,
2013-06-24 19:33:00,65.0,29.0,-100.00,NW,314,3.0,7.0,26,0.00,,,0.00,443.000000,,2013-06-25 03:33:00,
2013-06-24 20:01:00,65.0,29.0,-100.00,NW,314,3.0,7.0,26,0.00,,,0.00,443.000000,,2013-06-25 04:01:00,
2013-06-24 20:11:00,65.0,29.0,-100.00,NW,314,3.0,7.0,26,0.00,,,0.00,443.000000,,2013-06-25 04:11:00,
2013-06-24 20:22:00,65.0,29.0,-100.00,NW,314,3.0,7.0,26,0.00,,,0.00,443.000000,,2013-06-25 04:22:00,
2013-06-24 21:01:00,65.0,29.0,-100.00,NW,304,4.0,7.0,26,0.00,,,0.00,305.000000,,2013-06-25 05:01:00,
2013-06-24 21:11:00,65.0,29.0,-100.00,NW,304,4.0,7.0,26,0.00,,,0.00,305.000000,,2013-06-25 05:11:00,
2013-06-24 21:22:00,65.0,29.0,-100.00,NW,304,4.0,7.0,26,0.00,,,0.00,305.000000,,2013-06-25 05:22:00,
2013-06-24 21:32:00,65.0,29.0,-100.00,NW,304,4.0,7.0,26,0.00,,,0.00,305.000000,,2013-06-25 05:32:00,
2013-06-24 21:33:00,63.0,29.0,-100.00,NNW,330,2.0,5.0,27,0.00,,,0.00,181.000000,,2013-06-25 05:33:00,
2013-06-24 22:01:00,63.0,29.0,-100.00,NNW,330,2.0,5.0,27,0.00,,,0.00,181.000000,,2013-06-25 06:01:00,
2013-06-24 22:11:00,63.0,29.0,-100.00,NNW,330,2.0,5.0,27,0.00,,,0.00,181.000000,,2013-06-25 06:11:00,
2013-06-24 22:21:00,63.0,29.0,-100.00,NNW,330,2.0,5.0,27,0.00,,,0.00,181.000000,,2013-06-25 06:21:00,
2013-06-24 22:33:00,62.0,29.0,-100.00,WNW,298,1.0,5.0,29,0.00,,,0.00,29.000000,,2013-06-25 06:33:00,
2013-06-24 23:02:00,62.0,29.0,-100.00,WNW,298,1.0,5.0,29,0.00,,,0.00,29.000000,,2013-06-25 07:02:00,
2013-06-24 23:11:00,62.0,29.0,-100.00,WNW,298,1.0,5.0,29,0.00,,,0.00,29.000000,,2013-06-25 07:11:00,
2013-06-24 23:22:00,62.0,29.0,-100.00,WNW,298,1.0,5.0,29,0.00,,,0.00,29.000000,,2013-06-25 07:22:00,
2013-06-24 23:33:00,62.0,29.0,-100.00,NW,318,5.0,7.0,29,0.00,,,0.00,10.000000,,2013-06-25 07:33:00,